Time;durP1;ratioP1;P1;durP2;ratioP2;P2;SDS_P1;SDS_P2;PMS_P1;PMS_P2;Temp;Humidity;BMP_temperature;BMP_pressure;BME280_temperature;BME280_humidity;BME280_pressure;Samples;Min_cycle;Max_cycle;Signal;HPM_P1;HPM_P2
2020/12/21 00:01:18;;;;;;;13.68;9.30;;;6.70;74.50;;;;;;5047581;28;20065;-68
2020/12/21 00:03:44;;;;;;;49.97;24.55;;;6.70;74.50;;;;;;5038086;28;20056;-68
2020/12/21 00:06:14;;;;;;;27.15;14.35;;;6.70;74.80;;;;;;5033619;28;20888;-69
2020/12/21 00:08:40;;;;;;;22.15;13.95;;;6.70;74.50;;;;;;5044135;28;20033;-68
2020/12/21 00:11:06;;;;;;;27.58;16.40;;;6.70;74.50;;;;;;5043799;28;20074;-67
2020/12/21 00:13:32;;;;;;;15.80;10.38;;;6.70;74.00;;;;;;5051120;28;20104;-68
2020/12/21 00:15:59;;;;;;;15.25;9.73;;;6.70;73.80;;;;;;5036763;28;20123;-67
2020/12/21 00:18:25;;;;;;;13.23;9.38;;;6.80;73.80;;;;;;5031570;28;20037;-67
2020/12/21 00:20:51;;;;;;;15.85;10.68;;;6.90;73.30;;;;;;5052967;28;20105;-68
2020/12/21 00:23:36;;;;;;;13.43;9.35;;;6.90;73.20;;;;;;5051048;28;20465;-66
2020/12/21 00:26:01;;;;;;;13.20;9.70;;;6.90;72.90;;;;;;5052760;28;20120;-67
2020/12/21 00:28:27;;;;;;;11.57;8.68;;;7.00;72.40;;;;;;5053008;28;20123;-67
2020/12/21 00:30:53;;;;;;;10.60;8.02;;;7.00;70.70;;;;;;5038606;28;20513;-65
2020/12/21 00:33:19;;;;;;;13.60;8.20;;;7.00;70.30;;;;;;5029044;28;20059;-68
2020/12/21 00:35:44;;;;;;;12.52;8.32;;;7.00;69.20;;;;;;5017747;28;20032;-68
2020/12/21 00:38:10;;;;;;;12.20;7.80;;;7.00;69.60;;;;;;5009235;28;20032;-67
2020/12/21 00:40:37;;;;;;;13.55;8.48;;;7.00;69.50;;;;;;5046339;28;20484;-67
2020/12/21 00:43:03;;;;;;;11.38;8.10;;;6.90;69.60;;;;;;5024415;28;20116;-68
2020/12/21 00:45:28;;;;;;;10.68;8.00;;;6.90;69.40;;;;;;5042554;28;20537;-67
2020/12/21 00:47:54;;;;;;;10.98;7.82;;;6.90;68.60;;;;;;5041034;28;20347;-67
2020/12/21 00:50:20;;;;;;;11.88;8.20;;;6.90;68.40;;;;;;5011064;28;20119;-69
2020/12/21 00:52:45;;;;;;;10.38;8.00;;;6.90;68.40;;;;;;5017473;28;20057;-67
2020/12/21 00:55:11;;;;;;;11.82;8.40;;;7.00;68.80;;;;;;5033013;28;20729;-69
2020/12/21 00:57:37;;;;;;;11.18;8.25;;;7.10;67.60;;;;;;5038309;28;20036;-68
2020/12/21 01:00:06;;;;;;;11.40;8.25;;;7.10;67.40;;;;;;5035629;28;20128;-68
2020/12/21 01:02:32;;;;;;;11.80;8.75;;;7.20;67.30;;;;;;5032767;28;20082;-69
2020/12/21 01:04:57;;;;;;;11.35;8.30;;;7.30;67.40;;;;;;5041880;28;20096;-67
2020/12/21 01:07:23;;;;;;;13.52;9.98;;;7.30;66.30;;;;;;5019316;28;20041;-68
2020/12/21 01:09:48;;;;;;;27.08;14.63;;;7.30;66.50;;;;;;5050239;28;20067;-68
2020/12/21 01:12:17;;;;;;;21.25;12.77;;;7.40;66.50;;;;;;5048350;28;20072;-67
2020/12/21 01:14:43;;;;;;;19.35;12.07;;;7.40;65.80;;;;;;5041724;28;20052;-68
2020/12/21 01:17:09;;;;;;;16.65;10.68;;;7.40;66.00;;;;;;5051440;28;20033;-68
2020/12/21 01:19:35;;;;;;;18.33;11.20;;;7.20;65.70;;;;;;5052029;28;20041;-68
2020/12/21 01:22:01;;;;;;;17.95;11.10;;;7.20;65.60;;;;;;5047281;28;20082;-67
2020/12/21 01:24:27;;;;;;;13.07;9.27;;;7.20;66.00;;;;;;5050375;28;20033;-68
2020/12/21 01:26:52;;;;;;;26.15;14.68;;;7.20;65.80;;;;;;5024430;28;20036;-68
2020/12/21 01:29:18;;;;;;;21.38;12.85;;;7.30;65.50;;;;;;5044697;28;20033;-68
2020/12/21 01:31:43;;;;;;;31.83;18.23;;;7.20;65.50;;;;;;5039301;28;20040;-67
2020/12/21 01:34:10;;;;;;;33.45;17.85;;;7.20;65.40;;;;;;5017202;28;20040;-67
2020/12/21 01:36:35;;;;;;;23.15;14.00;;;7.20;65.40;;;;;;5032446;28;20029;-68
2020/12/21 01:39:01;;;;;;;38.50;19.83;;;7.20;65.30;;;;;;5042045;28;20199;-68
2020/12/21 01:41:27;;;;;;;44.55;20.80;;;7.10;65.50;;;;;;5040782;28;20037;-67
2020/12/21 01:43:56;;;;;;;36.70;18.58;;;7.10;65.60;;;;;;5032697;28;20083;-68
2020/12/21 01:46:22;;;;;;;30.20;17.17;;;7.10;65.70;;;;;;5032231;28;20033;-68
2020/12/21 01:48:48;;;;;;;28.50;15.77;;;7.20;65.70;;;;;;5032520;28;20353;-68
2020/12/21 01:51:21;;;;;;;26.88;13.43;;;7.20;65.50;;;;;;5031372;28;20029;-69
2020/12/21 01:54:05;;;;;;;16.15;10.65;;;7.20;65.40;;;;;;5034550;28;20116;-70
2020/12/21 01:56:31;;;;;;;36.95;18.70;;;7.20;64.90;;;;;;5051246;28;20037;-68
2020/12/21 01:58:57;;;;;;;41.90;19.25;;;7.20;65.10;;;;;;5045612;28;20516;-67
2020/12/21 02:01:27;;;;;;;24.50;14.52;;;7.10;65.10;;;;;;5034608;28;20155;-68
2020/12/21 02:03:52;;;;;;;23.88;13.85;;;7.10;65.40;;;;;;5016492;28;20021;-67
2020/12/21 02:06:18;;;;;;;24.77;13.75;;;7.00;65.40;;;;;;5034414;28;20485;-67
2020/12/21 02:08:44;;;;;;;16.85;11.18;;;7.00;65.30;;;;;;5046889;28;20044;-68
2020/12/21 02:11:09;;;;;;;22.15;13.27;;;7.10;65.40;;;;;;5051068;28;20025;-68
2020/12/21 02:13:35;;;;;;;30.98;17.40;;;7.00;65.10;;;;;;5033723;28;20036;-68
2020/12/21 02:16:01;;;;;;;25.42;14.75;;;7.00;65.10;;;;;;5048202;28;20493;-67
2020/12/21 02:18:27;;;;;;;60.45;27.35;;;6.90;65.40;;;;;;5031749;28;20056;-68
2020/12/21 02:20:52;;;;;;;21.10;12.48;;;6.90;65.60;;;;;;5032282;28;20535;-68
2020/12/21 02:23:18;;;;;;;29.80;16.67;;;7.00;65.70;;;;;;5050935;28;20036;-67
2020/12/21 02:25:44;;;;;;;33.60;18.73;;;7.00;65.90;;;;;;5050008;28;20029;-66
2020/12/21 02:28:09;;;;;;;13.85;10.48;;;7.00;65.70;;;;;;5032584;28;20033;-68
2020/12/21 02:30:35;;;;;;;16.02;11.18;;;7.10;65.50;;;;;;5031968;28;20462;-67
2020/12/21 02:33:01;;;;;;;20.88;13.82;;;7.00;65.20;;;;;;5033621;28;20033;-67
2020/12/21 02:35:26;;;;;;;15.15;11.15;;;6.90;65.10;;;;;;5052927;28;20029;-70
2020/12/21 02:37:52;;;;;;;13.88;10.50;;;6.70;65.50;;;;;;5055313;28;20390;-67
2020/12/21 02:40:17;;;;;;;14.75;10.30;;;6.70;65.90;;;;;;5054993;28;20021;-68
2020/12/21 02:42:43;;;;;;;13.70;10.05;;;6.70;66.20;;;;;;5055049;28;20528;-68
2020/12/21 02:45:08;;;;;;;11.55;9.10;;;6.70;66.20;;;;;;5054610;28;20028;-67
2020/12/21 02:47:36;;;;;;;12.07;9.00;;;6.80;66.00;;;;;;5050677;28;20087;-67
2020/12/21 02:50:03;;;;;;;11.85;9.20;;;6.90;65.60;;;;;;5054666;28;20032;-67
2020/12/21 02:52:30;;;;;;;13.05;9.40;;;6.90;65.50;;;;;;5050385;28;20049;-67
2020/12/21 02:54:56;;;;;;;11.88;9.15;;;6.80;65.40;;;;;;5035272;28;20040;-68
2020/12/21 02:57:22;;;;;;;11.35;9.35;;;6.90;65.50;;;;;;5034222;28;20131;-67
2020/12/21 02:59:48;;;;;;;12.43;10.52;;;6.90;65.50;;;;;;5055204;28;20045;-68
2020/12/21 03:02:13;;;;;;;11.32;9.43;;;6.90;65.30;;;;;;5041461;28;20037;-68
2020/12/21 03:04:39;;;;;;;12.40;9.00;;;7.00;65.50;;;;;;5034962;28;20468;-68
2020/12/21 03:07:04;;;;;;;13.27;9.38;;;7.10;65.40;;;;;;5053767;28;20055;-67
2020/12/21 03:09:30;;;;;;;11.45;9.13;;;7.00;64.70;;;;;;5054746;28;20384;-68
2020/12/21 03:11:55;;;;;;;11.38;9.27;;;6.90;65.00;;;;;;5055071;28;20028;-67
2020/12/21 03:14:21;;;;;;;11.32;8.73;;;6.90;65.30;;;;;;5054072;28;20032;-67
2020/12/21 03:16:47;;;;;;;11.35;8.98;;;6.90;65.30;;;;;;5054940;28;20029;-66
2020/12/21 03:19:12;;;;;;;11.63;9.13;;;6.90;65.30;;;;;;5053988;28;20025;-67
2020/12/21 03:21:38;;;;;;;12.30;9.15;;;7.00;65.30;;;;;;5044496;28;20100;-66
2020/12/21 03:24:04;;;;;;;12.25;9.75;;;7.00;65.00;;;;;;5023656;28;20025;-68
2020/12/21 03:26:29;;;;;;;10.90;8.63;;;6.90;64.60;;;;;;5054602;28;20021;-67
2020/12/21 03:28:55;;;;;;;12.82;10.10;;;7.00;64.70;;;;;;5052957;28;20032;-67
2020/12/21 03:31:21;;;;;;;12.18;9.75;;;7.00;64.40;;;;;;5054049;28;20037;-67
2020/12/21 03:33:46;;;;;;;12.55;9.55;;;7.00;64.50;;;;;;5054688;28;20078;-68
2020/12/21 03:36:12;;;;;;;13.90;11.02;;;7.00;64.00;;;;;;5043612;28;20488;-66
2020/12/21 03:38:37;;;;;;;12.93;10.23;;;6.90;64.20;;;;;;5054231;28;20365;-68
2020/12/21 03:41:03;;;;;;;15.57;11.13;;;6.90;64.10;;;;;;5035723;28;20021;-68
2020/12/21 03:43:29;;;;;;;14.60;11.00;;;6.80;64.30;;;;;;5054104;28;20083;-67
2020/12/21 03:45:55;;;;;;;14.00;10.88;;;6.90;64.50;;;;;;5042494;28;20087;-67
2020/12/21 03:48:20;;;;;;;13.30;10.85;;;7.00;64.60;;;;;;5032823;28;20040;-67
2020/12/21 03:50:46;;;;;;;14.52;11.00;;;7.00;64.40;;;;;;5051340;28;20033;-67
2020/12/21 03:53:11;;;;;;;15.25;10.70;;;7.00;64.20;;;;;;5042673;28;20045;-66
2020/12/21 03:55:37;;;;;;;14.70;11.40;;;7.00;64.00;;;;;;5052821;28;20027;-67
2020/12/21 03:58:03;;;;;;;15.70;11.27;;;7.00;63.90;;;;;;5053952;28;20039;-67
2020/12/21 04:00:29;;;;;;;15.98;12.32;;;7.00;64.00;;;;;;5046757;28;20117;-67
2020/12/21 04:02:55;;;;;;;17.02;12.32;;;7.00;64.10;;;;;;5044841;28;20029;-66
2020/12/21 04:05:21;;;;;;;18.85;12.50;;;7.00;64.10;;;;;;5051746;28;20138;-66
2020/12/21 04:07:47;;;;;;;17.20;12.70;;;7.00;63.90;;;;;;5053936;28;20029;-67
2020/12/21 04:10:13;;;;;;;17.00;11.98;;;7.00;64.00;;;;;;5041884;28;20056;-66
2020/12/21 04:12:38;;;;;;;17.80;12.73;;;7.00;64.00;;;;;;5041391;28;20017;-67
2020/12/21 04:15:05;;;;;;;15.93;12.63;;;7.10;63.90;;;;;;5038957;28;20037;-65
2020/12/21 04:17:30;;;;;;;18.20;12.82;;;7.10;64.00;;;;;;5043258;28;20124;-66
2020/12/21 04:19:56;;;;;;;18.00;13.02;;;7.10;64.00;;;;;;5039010;28;20171;-66
2020/12/21 04:22:22;;;;;;;17.88;12.55;;;7.00;63.70;;;;;;5051438;28;20025;-67
2020/12/21 04:24:48;;;;;;;19.27;13.40;;;6.80;64.20;;;;;;5049722;28;20038;-68
2020/12/21 04:27:14;;;;;;;19.20;13.90;;;6.80;64.70;;;;;;5047670;28;20052;-67
2020/12/21 04:29:39;;;;;;;17.33;13.13;;;6.80;65.00;;;;;;5049421;28;20025;-67
2020/12/21 04:32:05;;;;;;;16.90;12.27;;;6.90;64.40;;;;;;5041663;28;20040;-64
2020/12/21 04:34:31;;;;;;;19.48;14.00;;;6.90;64.10;;;;;;5049324;28;20040;-67
2020/12/21 04:36:57;;;;;;;20.55;14.00;;;6.90;64.20;;;;;;5033780;28;20381;-67
2020/12/21 04:39:23;;;;;;;17.50;12.75;;;6.80;64.00;;;;;;5032500;28;20025;-67
2020/12/21 04:41:56;;;;;;;18.15;12.90;;;6.80;64.70;;;;;;5033014;28;20463;-67
2020/12/21 04:44:23;;;;;;;19.25;13.15;;;6.80;64.50;;;;;;5040565;28;20044;-68
2020/12/21 04:46:52;;;;;;;19.35;14.20;;;6.80;64.30;;;;;;5038456;28;20043;-66
2020/12/21 04:49:18;;;;;;;17.42;13.07;;;6.90;64.40;;;;;;5032447;28;20040;-67
2020/12/21 04:51:45;;;;;;;19.35;13.52;;;7.00;64.50;;;;;;5033206;28;20025;-66
2020/12/21 04:54:11;;;;;;;17.77;13.38;;;6.90;64.30;;;;;;5032393;28;20060;-67
2020/12/21 04:56:38;;;;;;;18.00;13.15;;;6.80;64.60;;;;;;5051463;28;20064;-67
2020/12/21 04:59:04;;;;;;;18.80;13.63;;;6.80;64.90;;;;;;5052054;28;20076;-66
2020/12/21 05:01:29;;;;;;;17.88;13.10;;;6.70;64.80;;;;;;5049757;28;20386;-66
2020/12/21 05:03:55;;;;;;;19.55;13.93;;;6.80;65.00;;;;;;5034345;28;20036;-67
2020/12/21 05:06:21;;;;;;;18.23;13.57;;;6.80;65.10;;;;;;5035763;28;20041;-66
2020/12/21 05:08:46;;;;;;;18.77;13.18;;;6.70;65.20;;;;;;5015043;28;20079;-67
2020/12/21 05:11:12;;;;;;;19.73;14.40;;;6.90;65.00;;;;;;5032867;28;20075;-68
2020/12/21 05:13:38;;;;;;;19.13;14.32;;;6.90;65.10;;;;;;5015217;28;20048;-67
2020/12/21 05:16:03;;;;;;;19.98;14.40;;;6.80;64.90;;;;;;5018013;28;20028;-67
2020/12/21 05:18:31;;;;;;;19.63;14.55;;;6.80;65.20;;;;;;5036260;28;20103;-67
2020/12/21 05:21:02;;;;;;;19.48;13.48;;;7.00;65.20;;;;;;5039770;28;20025;-67
2020/12/21 05:23:28;;;;;;;21.13;14.35;;;7.00;64.90;;;;;;5023170;28;20104;-67
2020/12/21 05:26:03;;;;;;;20.05;14.95;;;7.00;64.80;;;;;;5032594;28;20112;-67
2020/12/21 05:28:33;;;;;;;24.00;17.17;;;7.00;64.80;;;;;;5031332;28;20277;-67
2020/12/21 05:31:02;;;;;;;20.83;14.45;;;7.10;64.60;;;;;;5027627;28;20033;-67
2020/12/21 05:33:27;;;;;;;20.33;14.68;;;7.10;64.20;;;;;;5040339;28;20118;-67
2020/12/21 05:36:04;;;;;;;20.75;14.55;;;7.10;64.40;;;;;;5049450;28;20080;-67
2020/12/21 05:38:30;;;;;;;20.85;14.43;;;7.20;64.50;;;;;;5043303;28;20108;-68
2020/12/21 05:41:17;;;;;;;20.42;14.18;;;7.20;64.30;;;;;;5031866;28;20032;-68
2020/12/21 05:43:44;;;;;;;19.73;14.15;;;7.20;64.10;;;;;;5032056;28;20084;-68
2020/12/21 05:46:19;;;;;;;22.42;15.57;;;7.20;64.30;;;;;;5016716;28;20033;-65
2020/12/21 05:48:45;;;;;;;20.45;15.25;;;7.10;64.30;;;;;;5022468;28;20068;-68
2020/12/21 05:51:16;;;;;;;20.17;14.55;;;7.00;64.60;;;;;;5034916;28;20108;-65
2020/12/21 05:53:43;;;;;;;21.95;14.50;;;7.00;64.80;;;;;;5044061;28;20114;-69
2020/12/21 05:56:10;;;;;;;21.35;15.77;;;7.00;64.60;;;;;;5035683;28;20033;-67
2020/12/21 05:58:38;;;;;;;23.02;16.25;;;6.90;65.10;;;;;;5036780;28;20045;-70
2020/12/21 06:01:10;;;;;;;22.83;15.57;;;7.00;65.10;;;;;;5040116;28;20049;-68
2020/12/21 06:03:49;;;;;;;23.25;16.33;;;7.00;64.90;;;;;;5048549;28;20086;-66
2020/12/21 06:06:23;;;;;;;21.95;15.65;;;7.00;65.30;;;;;;5036728;28;20040;-66
2020/12/21 06:08:50;;;;;;;;;;;7.00;65.20;;;;;;5038879;28;20034;-66
2020/12/21 06:11:18;;;;;;;23.80;16.85;;;7.10;64.80;;;;;;5039994;28;20399;-65
2020/12/21 06:13:58;;;;;;;23.88;17.13;;;7.00;64.70;;;;;;5043634;28;20078;-66
2020/12/21 06:16:26;;;;;;;24.48;16.83;;;7.00;65.00;;;;;;5029478;28;20036;-67
2020/12/21 06:18:59;;;;;;;23.17;16.90;;;7.00;65.50;;;;;;5031744;28;20033;-67
2020/12/21 06:21:26;;;;;;;32.60;20.48;;;6.90;65.50;;;;;;5031811;28;20037;-67
2020/12/21 06:23:51;;;;;;;24.10;17.58;;;7.00;65.50;;;;;;5034373;28;20033;-68
2020/12/21 06:26:17;;;;;;;24.13;17.73;;;7.00;65.20;;;;;;5025082;28;20025;-68
2020/12/21 06:28:44;;;;;;;25.85;18.52;;;7.00;65.30;;;;;;5031653;28;20034;-67
2020/12/21 06:31:14;;;;;;;25.23;17.65;;;7.00;65.10;;;;;;5032643;28;20053;-67
2020/12/21 06:33:41;;;;;;;34.55;18.95;;;7.10;65.20;;;;;;5040651;28;20033;-67
2020/12/21 06:36:06;;;;;;;34.40;22.08;;;7.10;65.10;;;;;;5033692;28;20060;-66
2020/12/21 06:38:46;;;;;;;29.73;20.10;;;7.10;65.10;;;;;;5047298;28;20053;-66
2020/12/21 06:41:16;;;;;;;26.52;17.73;;;7.00;65.40;;;;;;5034165;28;20030;-67
2020/12/21 06:43:56;;;;;;;26.27;18.30;;;7.10;65.30;;;;;;5041563;28;20033;-66
2020/12/21 06:46:23;;;;;;;26.70;19.63;;;7.10;65.00;;;;;;5033041;28;20100;-67
2020/12/21 06:49:11;;;;;;;24.65;17.55;;;7.00;65.50;;;;;;5043308;28;20033;-67
2020/12/21 06:51:41;;;;;;;27.60;19.83;;;7.10;65.60;;;;;;5035130;28;20070;-67
2020/12/21 06:54:09;;;;;;;26.13;18.48;;;7.10;65.40;;;;;;5040357;28;20029;-66
2020/12/21 06:56:35;;;;;;;26.90;18.50;;;7.20;65.20;;;;;;5021793;28;20017;-67
2020/12/21 06:59:01;;;;;;;31.17;20.33;;;7.10;65.10;;;;;;5038609;28;20032;-67
2020/12/21 07:01:29;;;;;;;25.88;18.45;;;7.20;65.20;;;;;;5025589;28;20050;-66
2020/12/21 07:03:55;;;;;;;26.90;19.05;;;7.10;65.10;;;;;;5019698;28;20334;-67
2020/12/21 07:06:21;;;;;;;30.83;19.73;;;7.10;65.00;;;;;;5024753;28;20378;-66
2020/12/21 07:08:49;;;;;;;25.48;17.80;;;7.20;65.10;;;;;;5029548;28;20315;-67
2020/12/21 07:11:16;;;;;;;28.25;20.27;;;7.20;64.90;;;;;;5030326;28;20044;-66
2020/12/21 07:13:42;;;;;;;27.42;19.90;;;7.10;65.10;;;;;;5031206;28;20079;-67
2020/12/21 07:16:08;;;;;;;29.02;18.90;;;7.00;65.50;;;;;;5012087;28;20030;-67
2020/12/21 07:18:34;;;;;;;32.67;19.50;;;7.00;65.60;;;;;;5028884;28;20068;-67
2020/12/21 07:20:59;;;;;;;28.40;19.50;;;6.90;65.60;;;;;;5012190;28;20156;-66
2020/12/21 07:23:25;;;;;;;28.38;19.85;;;6.70;66.20;;;;;;5023068;28;20053;-67
2020/12/21 07:25:52;;;;;;;29.23;19.98;;;6.60;67.00;;;;;;5015648;28;20030;-67
2020/12/21 07:28:27;;;;;;;28.80;21.08;;;6.70;67.10;;;;;;5016051;28;20562;-67
2020/12/21 07:30:53;;;;;;;31.00;20.73;;;6.80;66.90;;;;;;5021467;28;20170;-66
2020/12/21 07:33:18;;;;;;;30.92;20.45;;;7.00;66.50;;;;;;5025770;28;20526;-65
2020/12/21 07:35:57;;;;;;;29.27;20.65;;;7.10;66.10;;;;;;5022494;28;20474;-68
2020/12/21 07:38:23;;;;;;;30.65;20.65;;;7.10;65.50;;;;;;5022549;28;20142;-67
2020/12/21 07:40:50;;;;;;;30.42;20.85;;;7.00;65.50;;;;;;5016404;28;20118;-68
2020/12/21 07:43:38;;;;;;;33.35;24.00;;;6.90;66.00;;;;;;5021846;28;20025;-67
2020/12/21 07:46:07;;;;;;;31.23;21.17;;;6.90;66.00;;;;;;5016991;28;20074;-67
2020/12/21 07:48:33;;;;;;;29.92;20.08;;;6.90;66.00;;;;;;5012532;28;20065;-67
2020/12/21 07:51:04;;;;;;;31.77;21.10;;;6.80;66.10;;;;;;5012888;28;20026;-67
2020/12/21 07:53:32;;;;;;;32.78;21.92;;;6.90;66.10;;;;;;5011646;28;20505;-67
2020/12/21 07:55:58;;;;;;;33.33;22.42;;;6.90;66.20;;;;;;5014612;28;20029;-67
2020/12/21 07:58:24;;;;;;;34.03;23.10;;;6.90;66.00;;;;;;5016839;28;20030;-68
2020/12/21 08:00:57;;;;;;;32.38;22.00;;;6.80;66.10;;;;;;5031295;28;20081;-67
2020/12/21 08:03:25;;;;;;;40.28;25.52;;;6.90;66.00;;;;;;5030735;28;20022;-69
2020/12/21 08:06:05;;;;;;;36.05;23.33;;;7.00;67.00;;;;;;5030950;28;20036;-68
2020/12/21 08:08:31;;;;;;;33.45;22.45;;;7.10;66.00;;;;;;5027190;28;20048;-69
2020/12/21 08:10:58;;;;;;;31.65;22.00;;;7.20;65.40;;;;;;5019496;28;20038;-66
2020/12/21 08:13:24;;;;;;;33.15;22.48;;;7.20;65.40;;;;;;5012479;28;20065;-65
2020/12/21 08:15:49;;;;;;;31.70;21.52;;;7.30;65.00;;;;;;5031036;28;20056;-67
2020/12/21 08:18:15;;;;;;;33.53;21.65;;;7.30;65.00;;;;;;5032924;28;20026;-67
2020/12/21 08:20:51;;;;;;;31.52;21.17;;;7.40;64.80;;;;;;5031387;28;20614;-68
2020/12/21 08:23:24;;;;;;;32.13;21.38;;;7.50;64.50;;;;;;5028629;28;20034;-68
2020/12/21 08:25:49;;;;;;;34.13;21.80;;;7.40;64.30;;;;;;5012293;28;20026;-67
2020/12/21 08:28:36;;;;;;;32.03;21.50;;;7.40;64.20;;;;;;5015461;28;20674;-66
2020/12/21 08:31:09;;;;;;;30.75;20.70;;;7.40;64.30;;;;;;5020340;28;20091;-67
2020/12/21 08:33:37;;;;;;;34.28;22.15;;;7.50;64.30;;;;;;5017900;28;20038;-68
2020/12/21 08:36:16;;;;;;;27.75;19.60;;;7.50;64.00;;;;;;5025781;28;20564;-67
2020/12/21 08:38:42;;;;;;;31.40;20.55;;;7.40;63.40;;;;;;5022965;28;20212;-67
2020/12/21 08:41:08;;;;;;;29.38;20.27;;;7.40;63.90;;;;;;5020125;28;20029;-67
2020/12/21 08:43:34;;;;;;;29.60;20.58;;;7.40;64.00;;;;;;5028699;28;20033;-66
2020/12/21 08:46:00;;;;;;;29.35;21.15;;;7.30;64.50;;;;;;5014511;28;20029;-67
2020/12/21 08:48:26;;;;;;;30.35;20.33;;;7.30;64.60;;;;;;5012281;28;20136;-67
2020/12/21 08:50:51;;;;;;;29.45;21.27;;;7.40;64.60;;;;;;5013629;28;20112;-68
2020/12/21 08:53:17;;;;;;;31.73;19.45;;;7.50;64.60;;;;;;5012147;28;20100;-67
2020/12/21 08:55:42;;;;;;;30.73;19.92;;;7.50;64.10;;;;;;5023288;28;20028;-67
2020/12/21 08:58:09;;;;;;;29.13;20.45;;;7.60;64.00;;;;;;5016409;28;20037;-67
2020/12/21 09:00:35;;;;;;;27.58;19.15;;;7.60;63.70;;;;;;5022115;28;20107;-67
2020/12/21 09:03:00;;;;;;;25.83;18.77;;;7.60;63.40;;;;;;5041435;28;20365;-68
2020/12/21 09:05:26;;;;;;;23.73;17.40;;;7.50;63.80;;;;;;5046238;28;20025;-67
2020/12/21 09:07:52;;;;;;;28.20;19.58;;;7.50;64.20;;;;;;5032224;28;20037;-66
2020/12/21 09:10:17;;;;;;;46.40;26.73;;;7.50;64.00;;;;;;5047566;28;20041;-67
2020/12/21 09:12:43;;;;;;;23.38;17.58;;;7.60;63.70;;;;;;5042140;28;20163;-66
2020/12/21 09:15:09;;;;;;;24.90;17.95;;;7.50;63.80;;;;;;5040487;28;20127;-68
2020/12/21 09:17:36;;;;;;;25.80;18.05;;;7.50;63.90;;;;;;5042049;28;20029;-66
2020/12/21 09:20:02;;;;;;;26.17;18.30;;;7.40;64.20;;;;;;5019004;28;20045;-68
2020/12/21 09:22:28;;;;;;;25.05;17.55;;;7.40;64.40;;;;;;5035921;28;20037;-67
2020/12/21 09:24:54;;;;;;;24.98;16.48;;;7.50;64.40;;;;;;5049759;28;20055;-68
2020/12/21 09:27:20;;;;;;;23.42;16.92;;;7.50;64.70;;;;;;5041590;28;20033;-67
2020/12/21 09:29:46;;;;;;;18.92;14.27;;;7.60;63.90;;;;;;5040982;28;20033;-67
2020/12/21 09:32:11;;;;;;;20.77;14.73;;;7.70;63.00;;;;;;5046334;28;20079;-67
2020/12/21 09:34:37;;;;;;;19.95;14.13;;;7.70;62.40;;;;;;5021546;28;20052;-67
2020/12/21 09:37:03;;;;;;;20.25;14.18;;;7.70;62.50;;;;;;5032952;28;20567;-69
2020/12/21 09:39:28;;;;;;;22.08;16.63;;;7.70;62.60;;;;;;5049250;28;20488;-67
2020/12/21 09:41:55;;;;;;;21.50;15.63;;;7.50;62.80;;;;;;5036964;28;20033;-68
2020/12/21 09:44:39;;;;;;;23.13;16.23;;;7.50;63.00;;;;;;5032948;28;20025;-69
2020/12/21 09:47:05;;;;;;;23.60;15.85;;;7.40;63.30;;;;;;5048094;28;20036;-69
2020/12/21 09:49:31;;;;;;;22.42;16.38;;;7.40;63.70;;;;;;5027439;28;20090;-70
2020/12/21 09:51:56;;;;;;;24.42;15.95;;;7.30;63.70;;;;;;5049720;28;20411;-69
2020/12/21 09:54:22;;;;;;;20.17;15.68;;;7.30;63.80;;;;;;5046253;28;20031;-65
2020/12/21 09:56:48;;;;;;;23.45;17.23;;;7.30;63.90;;;;;;5042609;28;20028;-68
2020/12/21 09:59:14;;;;;;;24.85;16.95;;;7.30;63.90;;;;;;5044771;28;20040;-70
2020/12/21 10:01:39;;;;;;;25.60;17.90;;;7.50;63.70;;;;;;5027550;28;20485;-70
2020/12/21 10:04:05;;;;;;;24.77;17.50;;;7.50;63.60;;;;;;5050996;28;20032;-69
2020/12/21 10:06:33;;;;;;;26.42;17.30;;;7.50;63.50;;;;;;5050954;28;20033;-70
2020/12/21 10:08:58;;;;;;;23.67;17.67;;;7.60;63.40;;;;;;5049589;28;20503;-70
2020/12/21 10:11:24;;;;;;;24.08;16.60;;;7.70;63.10;;;;;;5039689;28;20105;-69
2020/12/21 10:13:50;;;;;;;24.55;17.33;;;7.80;63.20;;;;;;5020541;28;20056;-70
2020/12/21 10:16:16;;;;;;;26.25;17.13;;;7.90;62.60;;;;;;5049588;28;20062;-70
2020/12/21 10:18:41;;;;;;;23.17;17.38;;;8.00;62.10;;;;;;5041478;28;20040;-67
2020/12/21 10:21:07;;;;;;;22.83;16.90;;;8.00;62.20;;;;;;5050126;28;20032;-71
2020/12/21 10:23:33;;;;;;;26.08;16.73;;;8.20;62.30;;;;;;5031517;28;20029;-70
2020/12/21 10:26:02;;;;;;;25.48;16.20;;;8.30;61.60;;;;;;5050020;28;20352;-69
2020/12/21 10:28:28;;;;;;;23.90;16.20;;;8.20;61.70;;;;;;5048819;28;20021;-69
2020/12/21 10:30:53;;;;;;;22.10;16.52;;;8.20;61.90;;;;;;5013569;28;20026;-69
2020/12/21 10:33:19;;;;;;;27.85;16.27;;;8.20;61.80;;;;;;5020432;28;20052;-70
2020/12/21 10:35:45;;;;;;;23.27;16.13;;;8.20;61.50;;;;;;5029933;28;20043;-70
2020/12/21 10:38:11;;;;;;;22.85;15.85;;;8.20;61.30;;;;;;5037143;28;20037;-69
2020/12/21 10:40:37;;;;;;;21.30;15.60;;;8.20;61.30;;;;;;5028361;28;20048;-72
2020/12/21 10:43:03;;;;;;;20.77;15.02;;;8.30;61.80;;;;;;5018050;28;20054;-70
2020/12/21 10:45:29;;;;;;;26.30;16.00;;;8.30;61.50;;;;;;5024645;28;20041;-69
2020/12/21 10:47:55;;;;;;;24.10;16.45;;;8.40;60.90;;;;;;5017893;28;20406;-70
2020/12/21 10:50:20;;;;;;;29.85;17.08;;;8.50;61.00;;;;;;5028986;28;20142;-70
2020/12/21 10:52:46;;;;;;;25.00;16.73;;;8.60;60.60;;;;;;5027160;28;20029;-67
2020/12/21 10:55:12;;;;;;;22.58;15.65;;;8.70;60.50;;;;;;5030314;28;20564;-70
2020/12/21 10:57:38;;;;;;;23.95;16.35;;;8.80;59.30;;;;;;5047739;28;20579;-69
2020/12/21 11:00:06;;;;;;;23.15;15.80;;;9.00;60.00;;;;;;5047506;28;20104;-71
2020/12/21 11:02:31;;;;;;;24.17;16.10;;;9.10;59.30;;;;;;5043222;28;20025;-66
2020/12/21 11:04:57;;;;;;;20.35;15.18;;;9.10;58.90;;;;;;5047756;28;20043;-70
2020/12/21 11:07:22;;;;;;;21.67;16.05;;;9.20;59.00;;;;;;5036579;28;20389;-71
2020/12/21 11:09:48;;;;;;;21.52;15.30;;;9.30;59.10;;;;;;5028499;28;20040;-68
2020/12/21 11:12:14;;;;;;;21.60;14.77;;;9.30;58.40;;;;;;5003622;28;20022;-70
2020/12/21 11:14:40;;;;;;;25.02;15.77;;;9.20;58.30;;;;;;5043509;28;20029;-70
2020/12/21 11:17:05;;;;;;;22.13;16.38;;;9.00;59.00;;;;;;5046594;28;20466;-70
2020/12/21 11:19:31;;;;;;;20.58;15.50;;;8.80;59.30;;;;;;5032782;28;20041;-68
2020/12/21 11:21:57;;;;;;;20.08;14.63;;;8.60;59.80;;;;;;5023222;28;20107;-69
2020/12/21 11:24:22;;;;;;;20.52;15.38;;;8.70;59.90;;;;;;5037535;28;20470;-70
2020/12/21 11:26:51;;;;;;;22.42;15.55;;;8.80;60.00;;;;;;5040636;28;20025;-70
2020/12/21 11:29:17;;;;;;;26.15;20.05;;;8.80;60.00;;;;;;5039556;28;20060;-71
2020/12/21 11:31:42;;;;;;;25.05;16.13;;;8.80;59.40;;;;;;5018303;28;20026;-70
2020/12/21 11:34:08;;;;;;;22.90;16.52;;;8.80;59.70;;;;;;5053517;28;20033;-70
2020/12/21 11:36:34;;;;;;;20.60;16.20;;;8.90;59.70;;;;;;5048915;28;20610;-67
2020/12/21 11:38:59;;;;;;;23.58;16.25;;;8.90;59.40;;;;;;5045725;28;20418;-67
2020/12/21 11:41:29;;;;;;;23.10;16.17;;;8.90;59.70;;;;;;5036760;28;20033;-67
2020/12/21 11:43:55;;;;;;;21.77;15.73;;;8.80;59.90;;;;;;5043343;28;20029;-69
2020/12/21 11:46:32;;;;;;;28.67;18.70;;;8.80;60.00;;;;;;5027004;28;20088;-70
2020/12/21 11:48:58;;;;;;;24.35;15.50;;;8.80;60.40;;;;;;5043379;28;20045;-67
2020/12/21 11:51:24;;;;;;;19.70;13.82;;;8.90;59.90;;;;;;5045863;28;20037;-69
2020/12/21 11:53:50;;;;;;;20.55;14.32;;;8.80;59.80;;;;;;5044193;28;20519;-69
2020/12/21 11:56:21;;;;;;;19.77;14.85;;;8.70;60.20;;;;;;5010199;28;20030;-70
2020/12/21 11:58:47;;;;;;;27.08;14.15;;;8.70;60.60;;;;;;5007806;28;20038;-68
2020/12/21 12:01:14;;;;;;;26.40;16.75;;;8.60;61.10;;;;;;5008115;28;20049;-70
2020/12/21 12:03:40;;;;;;;26.42;15.60;;;8.60;61.10;;;;;;5029028;28;20055;-66
2020/12/21 12:06:06;;;;;;;22.48;14.57;;;8.60;61.00;;;;;;5034093;28;20473;-66
2020/12/21 12:08:32;;;;;;;20.05;14.55;;;8.70;61.30;;;;;;5036415;28;20046;-68
2020/12/21 12:10:59;;;;;;;25.30;15.18;;;8.70;61.00;;;;;;5047835;23;20060;-65
2020/12/21 12:13:25;;;;;;;20.98;15.20;;;8.80;60.70;;;;;;5044814;28;20386;-66
2020/12/21 12:15:51;;;;;;;20.73;13.98;;;8.90;60.50;;;;;;5037311;28;20037;-63
2020/12/21 12:18:17;;;;;;;25.00;14.45;;;8.90;60.90;;;;;;5043099;28;20047;-65
2020/12/21 12:20:42;;;;;;;22.92;14.75;;;8.90;60.80;;;;;;4998051;28;20033;-67
2020/12/21 12:23:08;;;;;;;19.13;14.02;;;9.00;60.80;;;;;;5021846;28;20175;-67
2020/12/21 12:25:34;;;;;;;22.02;13.88;;;8.90;60.50;;;;;;5026087;28;20056;-68
2020/12/21 12:28:01;;;;;;;19.35;12.93;;;8.90;60.50;;;;;;5034901;28;20060;-76
2020/12/21 12:30:26;;;;;;;20.08;13.90;;;8.70;61.00;;;;;;5022865;28;20084;-68
2020/12/21 12:32:52;;;;;;;20.58;12.60;;;8.70;61.20;;;;;;4994945;28;20417;-67
2020/12/21 12:35:18;;;;;;;25.10;14.27;;;8.70;61.30;;;;;;5029640;28;20044;-70
2020/12/21 12:37:44;;;;;;;24.05;13.35;;;8.60;61.30;;;;;;5014965;28;20441;-68